Date,TemperatureHighF,TemperatureAvgF,TemperatureLowF,DewpointHighF,DewpointAvgF,DewpointLowF,HumidityHigh,HumidityAvg,HumidityLow,PressureMaxIn,PressureMinIn,WindSpeedMaxMPH,WindSpeedAvgMPH,GustSpeedMaxMPH,PrecipitationSumIn
2013-1-1,12,-8,-17,3,-13,-22,82,78,66,30.91,30.29,3,0,5,0.00
2013-1-2,19,-6,-21,4,-14,-26,85,73,48,31.01,30.80,6,0,9,0.00
2013-1-3,15,-9,-24,-1,-16,-30,81,72,48,31.14,30.97,5,0,6,0.00
2013-1-4,22,-3,-16,6,-10,-21,84,74,46,31.11,30.78,4,0,7,0.00
2013-1-5,26,1,-15,7,-7,-20,84,73,43,31.06,30.89,2,0,5,0.00
2013-1-6,41,10,-9,17,2,-14,85,73,31,31.05,30.56,5,0,5,0.05
2013-1-7,36,10,-2,13,2,-7,86,72,38,30.56,30.28,5,0,6,0.00
2013-1-8,28,6,-7,10,-2,-12,86,72,38,30.93,30.46,7,0,9,0.00
2013-1-9,37,10,-6,17,3,-10,86,74,41,31.00,30.63,3,0,5,0.02
2013-1-10,38,16,0,18,7,-4,85,70,23,30.62,29.84,2,0,7,0.00
2013-1-11,21,11,-3,17,4,-8,87,75,47,30.05,29.48,16,3,25,0.00
2013-1-12,9,-9,-24,-3,-16,-30,83,71,47,30.56,30.05,7,0,11,0.00
2013-1-13,10,-8,-23,-3,-15,-29,81,72,40,30.69,30.52,4,0,12,0.00
2013-1-14,12,-7,-20,-2,-15,-25,81,71,44,30.76,30.46,5,0,9,0.00
2013-1-15,9,-12,-30,-3,-20,-36,81,71,54,31.28,30.77,6,0,10,0.00
2013-1-16,24,1,-14,12,-5,-19,86,75,58,31.31,31.01,6,0,8,0.00
2013-1-17,32,8,-7,17,2,-11,88,76,52,31.09,30.86,4,0,6,0.05
2013-1-18,30,6,-9,14,0,-13,88,75,50,30.93,30.73,5,0,8,0.00
2013-1-19,36,9,-9,12,-1,-13,85,68,29,31.03,30.83,6,0,7,0.00
2013-1-20,33,7,-10,9,-3,-15,84,68,29,30.93,30.71,6,0,9,0.00
2013-1-21,37,10,-8,10,-1,-12,84,66,28,30.91,30.71,5,1,12,0.00
2013-1-22,39,9,-7,9,-2,-11,84,67,21,30.92,30.73,4,0,7,0.00
2013-1-23,36,12,-8,12,1,-12,82,64,28,30.99,30.79,4,0,6,0.00
2013-1-24,41,22,2,24,13,-2,84,71,36,30.82,30.50,3,0,11,0.01
2013-1-25,37,30,25,30,26,22,92,86,75,30.50,30.20,2,0,6,0.00
2013-1-26,38,31,25,32,28,23,96,91,73,30.23,29.80,1,0,3,0.03
2013-1-27,39,31,19,31,27,17,95,86,68,29.87,29.78,5,0,10,0.19
2013-1-28,29,22,12,26,20,10,94,90,81,29.84,29.67,0,0,1,0.00
2013-1-29,18,7,-15,13,1,-20,91,76,46,30.30,29.76,4,0,7,0.00
2013-1-30,16,2,-19,11,-3,-24,87,81,69,30.72,30.31,5,0,10,0.00
2013-1-31,29,14,0,19,9,-4,89,81,61,30.71,30.54,5,1,13,0.00
2013-2-1,33,15,-3,18,8,-6,89,76,52,30.70,30.51,7,1,16,0.02
2013-2-2,30,10,-9,15,3,-13,87,75,50,30.86,30.69,4,1,7,0.00
2013-2-3,28,11,-4,13,4,-7,87,75,46,30.84,30.44,3,0,6,0.00
2013-2-4,36,10,-10,16,2,-14,87,73,32,30.63,30.43,7,1,11,0.00
2013-2-5,38,12,-6,17,5,-10,87,73,43,30.67,30.40,7,1,8,0.04
2013-2-6,38,18,-1,20,11,-5,93,75,44,30.44,30.17,8,1,11,0.02
2013-2-7,35,16,-1,19,7,-5,90,70,26,30.44,30.28,6,1,9,0.01
2013-2-8,40,20,-2,20,9,-7,86,65,35,30.44,29.93,5,0,15,0.02
2013-2-9,26,17,9,18,12,5,89,79,56,29.93,29.55,8,0,12,0.00
2013-2-10,25,10,-8,10,2,-12,85,71,35,30.21,29.81,6,1,11,0.00
2013-2-11,22,8,-8,10,1,-13,85,74,45,30.40,30.13,8,0,13,0.00
2013-2-12,18,-1,-19,5,-9,-24,83,72,51,30.80,30.41,8,1,15,0.00
2013-2-13,28,7,-12,13,-1,-17,86,72,49,30.84,30.57,10,1,16,0.00
2013-2-14,27,11,-3,17,4,-7,87,77,60,30.67,30.49,7,1,12,0.00
2013-2-15,27,8,-8,10,-1,-12,86,69,39,30.90,30.65,8,1,19,0.00
2013-2-16,35,10,-11,11,0,-15,84,66,35,30.95,30.64,8,1,13,0.00
2013-2-17,39,15,-6,17,1,-10,85,60,18,30.63,30.03,5,0,12,0.00
2013-2-18,24,12,-8,16,2,-13,89,68,40,30.46,29.99,12,1,16,0.00
2013-2-19,36,11,-13,8,-4,-18,82,57,19,30.60,30.15,4,0,6,0.01
2013-2-20,33,18,5,21,10,-2,88,71,37,30.15,29.62,6,0,11,0.00
2013-2-21,25,17,2,19,13,-2,89,85,78,30.03,29.67,5,0,9,0.00
2013-2-22,25,9,-8,14,3,-12,87,77,59,30.37,30.04,4,0,8,0.00
2013-2-23,23,9,-13,18,4,-18,89,81,61,30.39,30.03,2,0,5,0.00
2013-2-24,18,9,-6,11,4,-10,89,80,67,30.36,29.98,1,0,5,0.00
2013-2-25,24,5,-15,8,-2,-20,84,72,46,30.62,30.38,5,1,12,0.00
2013-2-26,20,5,-9,13,0,-13,87,80,68,30.63,30.21,3,0,11,0.00
2013-2-27,24,1,-20,8,-8,-25,82,70,43,30.89,30.64,8,1,12,0.00
2013-2-28,27,5,-20,8,-4,-25,81,68,43,31.01,30.81,5,1,14,0.00
2013-3-1,37,18,-3,21,10,-7,89,75,50,30.87,30.65,7,1,12,0.08
2013-3-2,43,22,2,21,13,-1,89,70,38,30.77,30.46,14,1,14,0.11
2013-3-3,41,25,7,26,17,4,91,74,41,30.45,29.94,9,1,18,0.01
2013-3-4,36,24,-2,28,20,-6,92,84,61,30.31,29.74,10,1,20,0.10
2013-3-5,40,12,-15,16,1,-19,85,66,23,30.75,30.32,6,1,11,0.08
2013-3-6,48,22,0,19,9,-4,87,62,24,30.67,30.19,7,1,11,0.00
2013-3-7,49,27,10,17,9,3,85,55,15,30.28,30.03,6,1,13,0.00
2013-3-8,47,29,15,26,17,9,92,65,29,30.13,29.68,7,1,16,0.00
2013-3-9,26,22,6,24,19,2,93,88,83,30.09,29.57,4,0,10,0.00
2013-3-10,31,12,-9,18,5,-12,87,74,55,30.61,30.11,6,1,14,0.06
2013-3-11,38,18,-6,19,8,-10,86,68,42,30.62,30.38,8,1,17,0.13
2013-3-12,41,28,14,24,19,11,89,72,47,30.43,30.28,7,1,14,0.07
2013-3-13,46,28,10,26,18,8,91,69,40,30.56,30.42,8,1,14,0.00
2013-3-14,51,31,13,24,17,10,88,62,25,30.61,30.39,8,1,13,0.00
2013-3-15,53,34,16,27,19,13,88,60,25,30.45,30.05,8,1,14,0.00
2013-3-16,38,28,18,31,24,15,93,85,60,30.08,29.89,5,0,8,0.03
2013-3-17,37,26,11,29,18,6,92,74,42,29.98,29.75,12,2,21,0.06
2013-3-18,33,26,19,16,9,3,81,51,36,30.11,29.96,13,2,20,0.00
2013-3-19,40,27,14,13,3,-8,77,42,14,30.37,30.10,9,2,16,0.00
2013-3-20,40,23,3,27,10,-6,91,61,26,30.44,30.09,7,1,15,0.00
2013-3-21,35,27,9,29,22,6,94,84,58,30.07,29.64,10,1,21,0.04
2013-3-22,36,19,-3,15,6,-7,88,62,27,30.09,29.84,9,1,19,0.08
2013-3-23,20,12,-5,11,4,-10,83,69,44,30.33,29.81,5,1,12,0.00
2013-3-24,20,3,-15,5,-6,-20,84,68,41,30.65,30.33,14,1,18,0.00
2013-3-25,29,6,-18,5,-7,-22,81,59,28,30.75,30.61,9,1,13,0.00
2013-3-26,45,25,1,18,9,-5,76,54,28,30.69,30.18,8,2,20,0.00
2013-3-27,48,34,22,22,17,11,77,54,23,30.17,29.98,9,2,19,0.00
2013-3-28,49,31,16,26,17,11,81,60,25,30.21,30.10,10,1,13,0.00
2013-3-29,49,34,20,25,20,15,83,61,29,30.26,30.12,11,1,19,0.00
2013-3-30,50,35,20,27,21,17,89,62,29,30.24,30.08,10,2,18,0.00
2013-3-31,50,33,16,25,19,13,87,60,27,30.21,30.04,9,1,15,0.00
2013-4-1,52,37,23,27,22,17,84,57,25,30.12,29.82,8,1,13,0.00
2013-4-2,49,33,22,28,20,10,92,65,21,29.99,29.77,9,1,12,0.00
2013-4-3,48,31,17,31,20,13,92,71,29,30.26,29.98,10,1,17,0.26
2013-4-4,52,34,16,26,19,14,90,61,27,30.33,30.14,9,1,14,0.00
2013-4-5,51,36,22,32,23,16,93,64,26,30.17,29.81,11,2,23,0.00
2013-4-6,48,36,22,32,23,12,95,65,23,29.97,29.86,9,2,18,0.04
2013-4-7,46,36,27,29,26,21,94,70,39,29.88,29.73,12,2,21,0.00
2013-4-8,52,36,25,32,25,14,94,72,24,29.78,29.37,12,1,18,0.02
2013-4-9,34,28,17,29,20,13,94,76,49,29.85,29.33,5,0,12,0.00
2013-4-10,28,18,9,20,12,6,89,80,65,30.20,29.85,7,1,12,0.00
2013-4-11,42,27,10,25,17,7,89,70,37,30.22,29.99,15,2,22,0.21
2013-4-12,44,31,20,29,20,10,89,66,25,30.04,29.92,10,1,19,0.00
2013-4-13,49,36,16,31,18,11,89,52,23,30.02,29.52,15,3,28,0.00
2013-4-14,37,30,25,32,23,17,94,77,47,29.71,29.43,6,1,19,0.10
2013-4-15,45,34,24,33,27,22,94,78,52,29.72,29.58,7,1,15,0.26
2013-4-16,51,39,26,25,18,9,91,49,21,29.70,29.50,14,3,28,0.00
2013-4-17,38,28,15,26,18,11,87,70,39,29.91,29.45,15,1,21,0.01
2013-4-18,24,15,4,11,4,-2,85,64,38,30.57,29.92,12,1,17,0.00
2013-4-19,41,21,-1,18,8,-5,85,62,36,30.67,30.28,15,2,19,0.07
2013-4-20,43,32,24,28,23,16,91,70,41,30.27,29.92,9,1,15,0.00
2013-4-21,48,34,18,27,21,9,93,64,24,30.18,30.02,9,1,16,0.09
2013-4-22,50,38,30,31,25,16,92,65,28,30.05,29.77,12,2,25,0.02
2013-4-23,36,28,15,26,16,1,88,63,31,30.19,29.74,11,2,23,0.05
2013-4-24,41,27,12,13,8,1,66,48,26,30.36,30.20,11,1,16,0.00
2013-4-25,55,36,20,25,16,9,79,50,20,30.34,29.95,11,1,19,0.00
2013-4-26,54,37,21,23,16,6,88,53,16,30.27,30.04,15,1,17,0.00
2013-4-27,56,39,21,24,17,5,87,52,13,30.30,30.11,7,1,17,0.00
2013-4-28,62,41,21,26,19,13,84,50,16,30.17,29.91,8,1,23,0.00
2013-4-29,62,43,26,27,21,13,85,50,16,29.97,29.69,14,2,23,0.00
2013-4-30,62,45,27,28,20,12,83,45,16,29.73,29.58,13,2,24,0.00
2013-5-1,47,36,23,32,22,7,91,62,26,30.27,29.59,12,2,22,0.02
2013-5-2,43,28,12,13,6,-7,85,46,16,30.57,30.28,8,1,19,0.00
2013-5-3,56,35,14,22,12,6,80,46,14,30.55,30.04,9,1,16,0.00
2013-5-4,54,38,22,29,19,9,78,52,18,30.08,29.90,5,0,18,0.00
2013-5-5,53,39,27,30,23,16,83,59,24,30.07,29.96,7,1,13,0.00
2013-5-6,48,37,30,38,31,27,95,80,53,30.04,29.85,4,0,13,0.11
2013-5-7,51,37,28,37,32,27,96,84,43,30.00,29.92,3,0,8,0.47
2013-5-8,46,34,29,32,30,27,96,88,52,30.08,29.93,6,0,8,0.31
2013-5-9,46,35,28,36,30,26,95,83,56,30.20,30.03,2,0,8,0.77
2013-5-10,52,36,22,31,26,20,94,70,35,30.36,30.19,5,0,12,0.01
2013-5-11,57,39,24,32,26,20,95,65,27,30.43,30.24,9,0,12,0.00
2013-5-12,61,44,30,34,29,23,95,62,25,30.34,30.13,7,1,15,0.01
2013-5-13,66,45,28,40,32,25,91,64,23,30.26,30.09,6,1,13,0.00
2013-5-14,66,44,30,45,35,28,95,76,28,30.13,29.89,8,1,15,0.17
2013-5-15,62,43,33,45,36,32,97,82,36,29.99,29.82,8,1,11,0.09
2013-5-16,64,47,30,41,31,24,97,62,22,29.94,29.78,8,1,17,0.01
2013-5-17,68,48,29,34,22,10,87,48,11,29.91,29.70,14,2,16,0.00
2013-5-18,59,40,28,35,27,21,96,64,27,29.85,29.69,9,1,14,0.05
2013-5-19,46,36,28,34,30,24,96,82,45,29.96,29.80,8,1,20,0.02
2013-5-20,48,34,24,36,29,22,95,83,53,30.10,29.94,7,1,15,0.03
2013-5-21,55,39,24,32,26,22,94,65,28,30.13,29.92,12,2,19,0.00
2013-5-22,66,47,27,32,27,20,89,53,20,29.95,29.74,6,1,16,0.00
2013-5-23,68,50,29,34,23,13,88,44,12,29.89,29.73,12,2,20,0.00
2013-5-24,68,49,29,27,20,10,76,39,11,29.91,29.79,13,2,20,0.00
2013-5-25,69,49,28,29,19,5,77,39,9,29.97,29.78,9,1,15,0.00
2013-5-26,70,50,29,29,21,10,78,40,11,29.92,29.71,9,2,17,0.00
2013-5-27,64,47,27,25,19,13,72,40,14,29.85,29.65,14,2,19,0.00
2013-5-28,63,46,27,26,20,10,74,42,14,29.78,29.51,7,1,18,0.00
2013-5-29,48,38,29,35,29,23,94,71,43,29.77,29.52,9,1,22,0.14
2013-5-30,54,41,25,26,20,15,93,52,22,29.90,29.77,18,4,39,0.00
2013-5-31,55,44,28,25,16,6,59,36,15,30.01,29.82,19,3,25,0.00
2013-6-1,62,42,22,27,19,14,80,45,17,30.18,30.02,10,2,15,0.00
2013-6-2,70,49,27,27,21,13,78,41,13,30.16,29.81,14,2,18,0.00
2013-6-3,69,50,32,32,27,21,80,46,17,29.85,29.68,13,2,28,0.00
2013-6-4,70,50,31,36,30,27,87,52,21,29.90,29.77,8,1,19,0.00
2013-6-5,68,51,32,35,26,13,86,46,12,29.89,29.76,16,2,23,0.00
2013-6-6,70,52,29,33,26,21,80,43,16,29.94,29.79,10,1,18,0.00
2013-6-7,66,50,36,37,32,28,84,55,25,29.91,29.71,11,1,17,0.00
2013-6-8,72,53,32,38,30,23,89,49,18,29.84,29.72,12,2,20,0.00
2013-6-9,78,56,33,34,29,22,81,43,13,29.91,29.77,9,2,16,0.00
2013-6-10,81,58,35,37,29,21,76,40,12,29.88,29.70,10,1,18,0.00
2013-6-11,76,57,37,34,24,14,69,34,10,29.88,29.69,11,2,24,0.00
2013-6-12,78,57,34,34,25,21,66,34,13,29.98,29.81,9,1,16,0.00
2013-6-13,74,57,40,36,29,21,60,37,17,29.93,29.73,11,1,18,0.00
2013-6-14,74,57,40,39,28,13,78,40,11,29.84,29.65,11,2,17,0.00
2013-6-15,71,51,31,33,24,15,62,39,15,29.98,29.78,14,2,23,0.00
2013-6-16,69,50,33,51,36,29,93,62,26,30.02,29.89,11,1,18,0.01
2013-6-17,72,53,35,43,32,18,93,55,13,30.04,29.89,11,1,18,0.00
2013-6-18,72,54,36,40,33,22,88,52,16,29.94,29.70,11,1,15,0.00
2013-6-19,75,54,31,31,19,5,71,35,7,29.80,29.61,15,2,19,0.00
2013-6-20,75,54,31,28,20,15,61,31,12,29.81,29.67,9,2,14,0.00
2013-6-21,74,53,32,29,22,17,66,36,12,29.84,29.68,10,1,15,0.00
2013-6-22,73,53,32,32,21,12,68,34,13,29.81,29.66,14,2,21,0.00
2013-6-23,73,53,31,31,24,18,65,37,15,29.85,29.65,6,1,13,0.00
2013-6-24,71,52,33,35,22,12,70,38,12,29.80,29.67,8,1,17,0.00
2013-6-25,72,55,36,32,26,20,61,36,19,29.92,29.78,13,2,18,0.00
2013-6-26,78,58,35,37,30,26,78,42,15,30.01,29.86,8,1,18,0.00
2013-6-27,84,61,38,38,32,20,75,40,10,30.04,29.87,10,1,25,0.00
2013-6-28,78,59,44,51,41,32,92,56,20,30.02,29.83,4,0,9,0.00
2013-6-29,74,54,40,52,43,39,95,70,30,30.03,29.87,8,0,13,0.11
2013-6-30,77,56,39,48,40,34,93,60,23,30.02,29.84,8,1,16,0.00
2013-7-1,76,56,36,42,35,25,93,54,16,30.04,29.86,7,1,15,0.00
2013-7-2,77,57,37,40,34,23,89,50,14,30.00,29.79,7,1,19,0.00
2013-7-3,75,54,36,41,35,28,88,55,19,29.90,29.73,7,1,21,0.00
2013-7-4,76,56,39,50,40,34,87,61,22,29.87,29.68,7,1,16,0.02
2013-7-5,75,64,47,45,42,38,89,48,28,29.78,29.58,7,2,20,0.00
2013-7-6,78,57,44,50,43,36,88,65,23,29.77,29.59,7,1,17,0.01
2013-7-7,77,60,47,50,45,38,95,65,26,29.84,29.67,8,1,14,0.11
2013-7-8,76,58,45,52,44,30,97,67,19,29.92,29.81,15,1,25,0.02
2013-7-9,80,61,40,44,36,26,86,48,15,30.03,29.86,10,1,11,0.00
2013-7-10,81,63,48,47,42,32,77,51,17,29.95,29.70,6,0,16,0.00
2013-7-11,83,61,43,46,41,33,85,54,18,29.85,29.64,10,1,12,0.00
2013-7-12,72,57,45,51,46,41,87,67,39,29.86,29.69,4,0,13,0.01
2013-7-13,73,59,44,50,46,42,92,66,38,29.94,29.83,6,1,18,0.00
2013-7-14,75,58,44,58,47,41,88,69,30,29.93,29.73,6,1,11,0.06
2013-7-15,70,53,41,51,46,39,96,78,46,29.91,29.78,3,1,12,0.00
2013-7-16,76,66,49,44,39,32,77,41,21,29.98,29.82,6,1,11,0.00
2013-7-17,79,58,40,50,43,37,89,62,30,30.02,29.81,6,1,12,0.00
2013-7-18,78,54,42,55,47,39,96,80,30,30.03,29.78,7,1,12,0.21
2013-7-19,69,53,41,58,48,41,98,86,47,30.02,29.91,3,0,8,0.10
2013-7-20,78,57,40,55,44,30,98,68,19,29.98,29.72,9,1,14,0.00
2013-7-21,75,59,44,51,42,30,91,61,20,29.82,29.67,6,1,11,0.00
2013-7-22,79,60,40,45,38,25,90,54,16,29.88,29.73,9,1,15,0.00
2013-7-23,81,59,40,45,36,25,86,51,13,29.90,29.75,7,1,11,0.00
2013-7-24,67,56,46,51,43,38,84,65,40,29.99,29.83,3,0,15,0.05
2013-7-25,70,57,46,53,46,36,96,71,30,29.93,29.86,6,1,11,0.08
2013-7-30,70,53,37,51,42,36,97,71,32,30.18,30.09,7,1,12,0.01
2013-7-31,75,56,36,44,37,29,94,59,19,30.23,29.99,8,1,15,0.00
2013-8-1,61,50,41,51,43,37,94,80,50,30.03,29.92,4,0,5,0.11
2013-8-2,74,58,47,54,45,30,96,68,21,29.94,29.79,11,1,15,0.01
2013-8-3,74,54,44,54,46,41,96,78,33,30.03,29.80,4,0,13,0.38
2013-8-4,74,56,39,52,44,39,97,70,29,30.09,29.94,8,1,13,0.01
2013-8-5,69,57,44,52,47,42,94,71,42,29.97,29.80,6,1,12,0.01
2013-8-6,71,52,42,50,46,41,96,83,39,29.94,29.77,6,0,13,0.15
2013-8-7,56,49,43,51,47,41,97,93,69,29.97,29.89,4,0,7,0.24
2013-8-8,65,49,41,50,44,40,97,85,49,30.04,29.89,7,1,14,0.22
2013-8-9,65,51,37,47,41,36,97,73,40,30.10,29.98,11,2,15,0.01
2013-8-10,69,52,37,46,38,29,95,67,23,30.14,29.98,10,2,16,0.00
2013-8-11,69,52,36,44,38,30,95,65,24,30.14,29.96,13,2,17,0.00
2013-8-12,67,52,39,48,40,33,93,70,28,30.06,29.91,13,2,16,0.03
2013-8-13,68,51,34,49,37,30,96,65,24,30.11,30.01,12,2,17,0.01
2013-8-14,70,52,35,43,35,27,93,59,21,30.11,29.97,8,1,18,0.00
2013-8-15,73,53,34,41,33,27,90,56,19,30.12,29.99,12,1,21,0.00
2013-8-16,75,55,36,42,33,26,88,51,17,30.12,29.94,10,2,17,0.00
2013-8-17,77,57,41,43,36,26,79,51,17,30.05,29.84,8,1,12,0.00
2013-8-18,74,53,39,51,42,35,95,71,25,30.05,29.87,18,2,19,0.06
2013-8-19,76,54,38,55,46,37,97,77,26,30.07,29.91,9,1,19,0.09
2013-8-20,75,57,41,49,43,36,95,65,24,29.99,29.82,7,1,12,0.00
2013-8-21,76,53,40,52,46,38,94,79,33,30.04,29.84,8,1,14,0.14
2013-8-22,74,56,43,51,46,42,97,72,33,30.08,29.87,7,1,15,0.00
2013-8-23,71,54,43,51,45,38,93,73,31,29.94,29.73,6,1,10,0.00
2013-8-24,67,52,42,50,44,39,96,76,40,30.02,29.87,8,1,12,0.02
2013-8-25,64,55,44,55,49,43,97,83,54,30.06,29.93,5,0,12,0.08
2013-8-26,72,58,47,52,49,44,97,75,37,30.05,29.87,10,1,15,0.02
2013-8-27,78,58,42,54,44,30,96,68,18,29.98,29.80,5,1,8,0.00
2013-8-28,75,57,41,52,44,40,95,67,30,29.97,29.83,12,1,14,0.00
2013-8-29,79,58,40,53,44,36,96,66,22,30.03,29.87,9,2,12,0.23
2013-8-30,75,60,48,55,49,40,97,71,30,30.00,29.82,9,1,13,0.01
2013-8-31,75,56,42,54,47,41,96,77,32,29.92,29.77,11,1,12,0.19
2013-9-1,75,56,44,55,48,39,97,78,28,29.96,29.82,12,1,17,0.04
2013-9-2,75,60,46,50,46,39,94,65,29,29.97,29.80,14,2,17,0.00
2013-9-3,78,59,42,49,44,40,93,64,28,29.95,29.81,12,2,14,0.00
2013-9-4,76,58,45,52,46,42,91,68,34,30.01,29.89,11,1,12,0.00
2013-9-5,80,59,42,49,40,29,93,59,16,30.08,29.89,8,1,14,0.00
2013-9-6,77,56,42,58,45,38,91,70,29,30.02,29.81,9,1,14,0.06
2013-9-7,76,57,41,53,43,35,91,65,24,30.00,29.79,7,1,11,0.02
2013-9-8,72,56,43,46,42,38,89,64,30,29.90,29.65,10,1,17,0.00
2013-9-9,67,53,39,49,45,38,95,77,40,29.80,29.67,6,1,13,0.01
2013-9-10,64,53,47,52,47,41,96,82,44,29.89,29.77,3,0,10,0.22
2013-9-11,67,53,44,52,47,42,97,84,47,29.95,29.84,3,0,17,0.03
2013-9-12,68,52,42,51,46,41,97,82,43,30.01,29.82,6,1,13,0.16
2013-9-13,61,51,43,50,45,40,97,82,46,29.87,29.71,5,1,12,0.26
2013-9-14,62,48,41,50,45,40,97,88,49,29.91,29.73,10,1,18,0.32
2013-9-15,60,46,40,49,44,39,97,91,55,30.09,29.89,7,0,9,0.22
2013-9-16,62,46,37,52,43,37,98,89,54,30.14,29.97,7,1,10,0.19
2013-9-17,66,49,36,48,40,35,97,76,33,30.09,29.79,9,1,15,0.00
2013-9-18,62,48,39,51,44,38,97,87,46,29.89,29.69,16,1,19,0.49
2013-9-19,61,46,32,47,36,28,98,75,30,30.04,29.84,11,2,18,0.01
2013-9-20,65,44,28,36,29,15,94,64,15,30.14,30.00,11,2,17,0.00
2013-9-21,65,47,31,40,35,29,94,67,31,30.09,29.80,17,2,22,0.00
2013-9-22,57,42,34,48,38,32,96,88,61,29.81,29.52,13,1,18,0.87
2013-9-23,49,38,29,35,32,27,96,80,49,30.21,29.59,11,3,16,0.33
2013-9-24,62,41,26,34,27,17,96,68,18,30.30,30.02,8,1,13,0.01
2013-9-25,64,44,28,37,28,23,92,61,22,30.01,29.57,15,3,25,0.00
2013-9-26,63,45,29,31,25,14,85,54,15,29.72,29.56,16,3,26,0.00
2013-9-27,43,35,28,38,31,24,93,86,65,30.09,29.60,10,2,13,0.17
2013-9-28,51,32,17,34,24,15,92,76,33,30.38,30.09,9,2,15,0.01
2013-9-29,58,38,23,29,24,17,95,65,22,30.36,30.11,11,2,18,0.01
2013-9-30,64,43,27,35,27,21,90,62,24,30.19,29.90,13,2,20,0.00
2013-10-1,67,43,28,33,27,18,90,61,16,30.08,29.87,9,2,11,0.00
2013-10-2,61,41,26,29,23,13,86,58,15,30.03,29.84,9,1,15,0.00
2013-10-3,60,43,27,32,25,21,87,55,23,29.92,29.59,13,2,19,0.00
2013-10-4,42,27,16,32,19,10,91,73,39,30.30,29.59,9,3,17,0.00
2013-10-5,48,27,15,21,13,-1,92,64,13,30.53,30.31,9,1,24,0.01
2013-10-6,56,32,16,28,19,13,88,63,25,30.58,30.38,11,2,16,0.00
2013-10-7,64,40,23,30,22,7,93,60,11,30.45,30.09,8,1,14,0.00
2013-10-8,60,41,27,30,24,17,89,60,20,30.11,29.75,11,2,16,0.00
2013-10-9,58,41,28,30,24,15,88,57,21,29.89,29.76,4,1,17,0.00
2013-10-10,45,36,29,33,29,24,93,75,45,29.88,29.49,12,1,18,0.00
2013-10-11,38,32,28,33,29,26,95,88,75,30.15,29.75,11,2,15,0.08
2013-10-12,48,32,20,30,25,18,94,77,40,30.27,30.10,9,1,12,0.12
2013-10-13,55,39,25,34,28,23,92,69,35,30.25,29.89,12,1,17,0.00
2013-10-14,36,31,27,31,28,25,94,87,74,30.17,29.81,14,2,22,0.00
2013-10-15,39,30,21,28,23,17,93,77,44,30.23,30.07,6,1,13,0.03
2013-10-16,38,30,21,27,22,16,92,75,46,30.24,30.08,11,1,18,0.00
2013-10-17,43,27,14,20,16,11,89,67,31,30.32,30.11,13,2,17,0.01
2013-10-18,38,28,20,24,14,4,92,62,25,30.35,30.09,11,2,21,0.00
2013-10-19,47,27,12,20,14,9,89,63,29,30.41,30.24,14,2,19,0.00
2013-10-20,47,31,17,21,18,14,89,64,31,30.25,29.99,12,2,21,0.00
2013-10-21,47,31,19,21,17,9,91,63,22,30.34,30.14,13,2,18,0.00
2013-10-22,53,32,18,24,20,15,90,67,27,30.45,30.27,9,2,15,0.00
2013-10-23,56,34,19,26,20,14,91,64,19,30.39,30.19,11,1,14,0.00
2013-10-24,56,36,22,26,20,14,86,59,19,30.34,30.18,8,1,18,0.00
2013-10-25,45,31,24,35,24,20,95,78,42,30.33,30.21,7,1,14,0.01
2013-10-26,31,27,23,30,26,22,95,94,93,30.44,30.32,1,0,2,0.00
2013-10-27,51,36,27,26,23,20,81,62,32,30.03,29.96,9,1,19,0.00
2013-10-28,49,35,26,29,21,15,91,63,26,30.01,29.81,12,2,25,0.00
2013-10-29,43,33,24,29,21,14,92,65,32,29.93,29.82,15,3,24,0.00
2013-10-30,34,25,16,26,19,14,93,80,50,30.04,29.89,9,1,16,0.03
2013-10-31,32,24,17,22,18,14,91,79,58,30.23,30.04,9,2,18,0.00
2013-11-1,41,28,16,26,18,13,94,72,38,30.46,30.22,14,2,18,0.01
2013-11-2,53,27,11,17,11,1,87,60,13,30.53,30.17,7,1,14,0.00
2013-11-3,47,32,18,25,18,12,86,59,33,30.17,29.71,16,3,23,0.00
2013-11-4,38,28,18,26,18,11,92,69,35,29.94,29.82,7,1,11,0.00
2013-11-5,28,19,0,26,14,-4,91,79,41,30.50,29.87,16,2,18,0.00
2013-11-6,32,14,-3,18,7,-7,88,75,50,30.91,30.51,14,2,18,0.00
2013-11-7,46,23,7,24,15,4,90,75,31,30.91,30.47,8,1,15,0.07
2013-11-8,49,29,14,21,16,11,91,65,26,30.46,30.16,10,2,19,0.01
2013-11-9,49,29,16,23,18,14,90,68,27,30.45,30.27,13,1,14,0.00
2013-11-10,50,28,16,22,17,13,89,67,25,30.54,30.36,9,1,16,0.00
2013-11-11,48,28,15,22,17,13,90,68,28,30.66,30.45,9,1,13,0.00
2013-11-12,50,28,16,23,16,12,91,67,22,30.76,30.58,10,1,14,0.00
2013-11-13,47,28,14,21,16,11,89,64,28,30.66,30.26,10,1,13,0.00
2013-11-14,45,29,19,24,18,14,86,68,34,30.25,29.98,10,1,14,0.00
2013-11-15,41,28,15,28,20,12,94,75,35,29.97,29.65,15,3,22,0.00
2013-11-16,32,28,25,27,24,20,94,86,63,29.66,29.53,18,4,29,0.00
2013-11-17,35,25,8,25,19,5,93,78,55,30.37,29.65,13,3,24,0.02
2013-11-18,34,16,0,24,11,-3,92,84,62,30.65,30.38,8,1,11,0.00
2013-11-19,39,22,6,28,18,3,92,83,56,30.57,30.16,9,1,12,0.03
2013-11-20,41,31,25,29,26,23,94,84,52,30.16,29.84,6,1,10,0.04
2013-11-21,35,30,27,31,28,25,95,91,79,30.22,29.89,5,0,7,0.01
2013-11-22,34,29,25,29,25,22,94,85,73,30.38,30.21,2,0,5,0.00
2013-11-23,34,27,18,28,23,15,94,85,68,30.46,30.28,2,0,6,0.00
2013-11-24,30,25,16,26,22,14,94,89,78,30.27,30.02,3,0,6,0.00
2013-11-25,31,22,8,25,20,5,93,88,76,30.52,30.06,0,0,0,0.00
2013-11-26,29,11,-1,21,8,-5,92,85,71,30.84,30.52,0,0,0,0.00
2013-11-27,29,13,-1,22,9,-4,92,85,67,30.86,30.59,3,0,6,0.00
2013-11-28,48,20,7,30,15,4,92,82,45,30.65,30.40,2,0,6,0.27
2013-11-29,38,17,4,21,11,1,91,80,49,30.69,30.50,6,0,10,0.04
2013-11-30,34,15,1,21,9,-2,91,80,52,30.76,30.55,5,1,12,0.01
2013-12-1,35,18,0,21,11,-4,91,77,52,30.75,30.49,10,1,13,0.00
2013-12-2,40,33,25,24,21,15,84,63,43,30.49,29.75,16,2,23,0.00
2013-12-3,34,30,28,28,22,16,94,74,48,29.75,29.41,8,1,15,0.00
2013-12-4,28,17,-6,27,14,-10,94,90,84,30.05,29.31,12,2,17,0.00
2013-12-5,10,-6,-23,6,-10,-28,87,82,75,30.51,30.05,3,0,8,0.00
2013-12-6,11,-2,-10,4,-7,-13,86,80,58,30.65,30.46,8,1,12,0.00
2013-12-7,19,8,-8,11,4,-12,89,83,63,30.64,30.00,7,0,11,0.00
2013-12-8,13,3,-19,10,-1,-23,89,81,69,30.37,29.89,11,2,18,0.00
2013-12-9,7,-12,-24,-2,-18,-29,84,76,64,31.24,30.38,11,1,13,0.00
2013-12-10,13,-9,-26,4,-14,-31,85,78,61,31.32,31.07,4,0,7,0.01
2013-12-11,30,3,-9,15,-2,-13,89,80,55,31.16,30.98,4,0,8,0.00
2013-12-12,32,3,-11,17,-2,-15,90,80,50,31.19,30.76,5,1,8,0.02
2013-12-13,26,6,-9,14,1,-13,91,80,58,30.75,30.46,9,1,16,0.00
2013-12-14,24,3,-11,12,-2,-15,91,80,56,31.00,30.66,7,1,12,0.00
2013-12-15,32,9,-7,19,4,-11,90,80,55,31.02,30.85,6,1,13,0.01
2013-12-16,38,12,-2,25,7,-6,92,81,48,30.94,30.75,7,1,12,0.04
2013-12-17,41,13,-2,24,8,-5,93,81,46,31.01,30.78,3,0,4,0.05
2013-12-18,33,14,1,20,10,-2,92,82,53,30.80,30.27,4,0,6,0.01
2013-12-19,40,29,15,24,19,12,91,69,38,30.26,29.82,11,2,17,0.01
2013-12-20,28,20,11,23,18,8,92,89,79,29.85,29.70,6,1,12,0.00
2013-12-21,21,13,-2,16,9,-5,89,85,78,30.15,29.76,8,1,15,0.00
2013-12-22,24,4,-16,13,-1,-20,88,79,62,30.75,30.16,9,2,14,0.00
2013-12-23,26,10,-4,16,6,-8,92,81,63,30.84,30.71,7,1,14,0.00
2013-12-24,30,14,-7,25,10,-11,90,84,63,30.81,30.46,13,1,16,0.00
2013-12-25,27,1,-14,14,-7,-18,91,73,33,31.14,30.73,7,1,13,0.00
2013-12-26,26,3,-11,12,-3,-15,89,77,44,31.14,30.93,8,1,12,0.00
2013-12-27,36,9,-5,18,3,-9,91,80,46,31.07,30.76,6,1,7,0.02
2013-12-28,29,14,-2,19,9,-6,91,81,63,30.75,30.32,5,1,9,0.00
2013-12-29,27,14,-3,18,9,-7,92,82,57,30.51,30.27,9,1,13,0.00
2013-12-30,30,6,-6,14,0,-10,91,77,45,30.86,30.49,7,1,16,0.00
2013-12-31,35,15,-3,21,9,-7,89,78,55,30.84,30.46,9,2,15,0.00
2014-1-1,30,21,-1,23,13,-4,91,73,45,30.57,30.25,17,3,22,0.00
2014-1-2,34,17,-2,11,5,-6,91,63,29,30.86,30.72,11,2,13,0.00